createdAt,value
2022-11-05T00:00:41.881Z,9.58
2022-11-05T00:06:05.350Z,9.47
2022-11-05T00:11:08.151Z,9.38
2022-11-05T00:16:29.348Z,9.32
2022-11-05T00:21:51.610Z,9.24
2022-11-05T00:26:54.534Z,9.11
2022-11-05T00:31:57.269Z,8.94
2022-11-05T00:37:00.083Z,8.79
2022-11-05T00:42:21.339Z,8.69
2022-11-05T00:47:42.947Z,8.61
2022-11-05T00:52:56.292Z,8.56
2022-11-05T00:58:00.425Z,8.46
2022-11-05T01:03:09.040Z,8.39
2022-11-05T01:08:13.949Z,8.29
2022-11-05T01:13:22.014Z,8.22
2022-11-05T01:18:25.410Z,8.17
2022-11-05T01:23:28.898Z,8.13
2022-11-05T01:28:31.721Z,8.08
2022-11-05T01:33:34.748Z,8.06
2022-11-05T01:38:37.953Z,8.03
2022-11-05T01:43:52.809Z,7.98
2022-11-05T01:49:02.981Z,7.96
2022-11-05T01:54:10.226Z,7.90
2022-11-05T01:59:43.308Z,7.91
2022-11-05T02:04:54.847Z,7.88
2022-11-05T02:10:15.681Z,7.87
2022-11-05T02:15:27.420Z,7.83
2022-11-05T02:20:59.345Z,7.82
2022-11-05T02:26:42.757Z,7.83
2022-11-05T02:32:23.949Z,7.84
2022-11-05T02:37:34.264Z,7.85
2022-11-05T02:42:55.255Z,7.86
2022-11-05T02:48:16.706Z,7.90
2022-11-05T02:53:24.450Z,7.92
2022-11-05T02:58:29.157Z,7.90
2022-11-05T03:03:43.913Z,7.86
2022-11-05T03:08:49.774Z,7.78
2022-11-05T03:14:25.015Z,7.73
2022-11-05T03:19:46.697Z,7.69
2022-11-05T03:24:55.499Z,7.67
2022-11-05T03:30:04.996Z,7.64
2022-11-05T03:35:13.304Z,7.65
2022-11-05T03:40:18.376Z,7.63
2022-11-05T03:45:25.516Z,7.61
2022-11-05T03:50:45.648Z,7.56
2022-11-05T03:55:55.286Z,7.47
2022-11-05T04:01:03.267Z,7.43
2022-11-05T04:06:26.589Z,7.39
2022-11-05T04:11:47.949Z,7.37
2022-11-05T04:17:11.945Z,7.34
2022-11-05T04:22:33.260Z,7.35
2022-11-05T04:27:36.522Z,7.37
2022-11-05T04:32:39.351Z,7.36
2022-11-05T04:37:41.962Z,7.38
2022-11-05T04:42:44.798Z,7.37
2022-11-05T04:47:47.665Z,7.39
2022-11-05T04:52:50.318Z,7.42
2022-11-05T04:57:54.513Z,7.43
2022-11-05T05:02:57.281Z,7.43
2022-11-05T05:08:04.763Z,7.44
2022-11-05T05:13:09.967Z,7.48
2022-11-05T05:18:13.044Z,7.46
2022-11-05T05:23:15.839Z,7.50
2022-11-05T05:28:19.191Z,7.53
2022-11-05T05:33:22.047Z,7.54
2022-11-05T05:38:25.210Z,7.56
2022-11-05T05:43:34.543Z,7.51
2022-11-05T05:48:37.622Z,7.51
2022-11-05T05:53:40.523Z,7.50
2022-11-05T05:58:43.765Z,7.49
2022-11-05T06:03:48.344Z,7.47
2022-11-05T06:08:51.129Z,7.51
2022-11-05T06:13:53.916Z,7.50
2022-11-05T06:18:56.715Z,7.50
2022-11-05T06:24:00.534Z,7.48
2022-11-05T06:29:03.301Z,7.49
2022-11-05T06:34:06.187Z,7.50
2022-11-05T06:39:13.014Z,7.54
2022-11-05T06:44:15.824Z,7.58
2022-11-05T06:49:18.661Z,7.62
2022-11-05T06:54:21.519Z,7.59
2022-11-05T06:59:24.328Z,7.56
2022-11-05T07:04:27.113Z,7.56
2022-11-05T07:09:30.027Z,7.56
2022-11-05T07:14:32.972Z,7.57
2022-11-05T07:19:35.925Z,7.63
2022-11-05T07:24:38.734Z,7.70
2022-11-05T07:29:42.224Z,7.80
2022-11-05T07:34:44.958Z,7.89
2022-11-05T07:39:47.829Z,7.96
2022-11-05T07:44:50.528Z,8.01
2022-11-05T07:49:53.528Z,8.11
2022-11-05T07:54:56.370Z,8.18
2022-11-05T07:59:59.075Z,8.22
2022-11-05T08:05:03.365Z,8.23
2022-11-05T08:10:06.639Z,8.24
2022-11-05T08:15:09.948Z,8.28
2022-11-05T08:20:13.921Z,8.32
2022-11-05T08:25:16.540Z,8.37
2022-11-05T08:30:19.392Z,8.42
2022-11-05T08:35:21.970Z,8.50
2022-11-05T08:40:26.182Z,8.54
2022-11-05T08:45:29.800Z,8.64
2022-11-05T08:50:33.390Z,8.69
2022-11-05T08:55:36.669Z,8.75
2022-11-05T09:00:40.162Z,8.84
2022-11-05T09:05:43.612Z,8.94
2022-11-05T09:10:48.171Z,9.00
2022-11-05T09:15:51.127Z,9.04
2022-11-05T09:20:54.177Z,9.10
2022-11-05T09:25:56.934Z,9.11
2022-11-05T09:31:00.671Z,9.16
2022-11-05T09:36:04.319Z,9.20
2022-11-05T09:41:31.194Z,9.28
2022-11-05T09:46:42.931Z,9.37
2022-11-05T09:51:45.699Z,9.55
2022-11-05T09:56:48.624Z,9.72
2022-11-05T10:01:54.629Z,10.01
2022-11-05T10:07:03.833Z,10.51
2022-11-05T10:12:12.547Z,10.94
2022-11-05T10:17:25.247Z,11.19
2022-11-05T10:22:28.303Z,11.37
2022-11-05T10:27:36.882Z,11.50
2022-11-05T10:32:40.992Z,11.53
2022-11-05T10:37:46.823Z,11.47
2022-11-05T10:43:13.540Z,11.45
2022-11-05T10:48:45.918Z,11.48
2022-11-05T10:54:00.539Z,11.42
2022-11-05T10:59:11.923Z,11.38
2022-11-05T11:04:26.942Z,11.39
2022-11-05T11:09:36.086Z,11.48
2022-11-05T11:14:39.705Z,11.49
2022-11-05T11:19:42.363Z,11.52
2022-11-05T11:24:48.227Z,11.55
2022-11-05T11:30:05.159Z,11.49
2022-11-05T11:35:19.113Z,11.43
2022-11-05T11:40:31.249Z,11.45
2022-11-05T11:45:44.132Z,11.57
2022-11-05T11:50:48.490Z,11.67
2022-11-05T11:56:12.741Z,11.77
2022-11-05T12:01:27.948Z,12.00
2022-11-05T12:06:36.344Z,12.19
2022-11-05T12:11:49.321Z,12.20
2022-11-05T12:17:10.901Z,12.16
2022-11-05T12:22:32.705Z,12.18
2022-11-05T12:28:12.037Z,12.10
2022-11-05T12:33:25.764Z,11.92
2022-11-05T12:39:04.473Z,11.80
2022-11-05T12:44:22.723Z,11.68
2022-11-05T12:49:40.570Z,11.64
2022-11-05T12:55:25.115Z,11.66
2022-11-05T13:00:30.555Z,11.63
2022-11-05T13:05:40.345Z,11.63
2022-11-05T13:10:50.920Z,11.63
2022-11-05T13:16:03.769Z,11.65
2022-11-05T13:21:09.187Z,11.68
2022-11-05T13:26:24.913Z,11.66
2022-11-05T13:31:32.673Z,11.61
2022-11-05T13:37:01.893Z,11.58
2022-11-05T13:42:04.669Z,11.53
2022-11-05T13:47:19.706Z,11.55
2022-11-05T13:52:44.235Z,11.47
2022-11-05T13:58:15.426Z,11.39
2022-11-05T14:03:20.604Z,11.32
2022-11-05T14:08:27.336Z,11.25
2022-11-05T14:13:42.385Z,11.16
2022-11-05T14:19:08.367Z,11.11
2022-11-05T14:24:23.488Z,11.07
2022-11-05T14:29:46.245Z,11.01
2022-11-05T14:34:55.156Z,10.97
2022-11-05T14:40:19.670Z,10.92
2022-11-05T14:45:29.899Z,10.88
2022-11-05T14:50:41.755Z,10.84
2022-11-05T14:55:44.677Z,10.82
2022-11-05T15:00:48.575Z,10.78
2022-11-05T15:05:52.294Z,10.78
2022-11-05T15:11:03.759Z,10.76
2022-11-05T15:16:07.113Z,10.74
2022-11-05T15:21:14.864Z,10.71
2022-11-05T15:26:36.666Z,10.68
2022-11-05T15:31:41.370Z,10.64
2022-11-05T15:36:53.459Z,10.60
2022-11-05T15:41:57.151Z,10.58
2022-11-05T15:47:25.963Z,10.56
2022-11-05T15:52:37.260Z,10.53
2022-11-05T15:57:51.641Z,10.44
2022-11-05T16:03:05.014Z,10.32
2022-11-05T16:08:16.772Z,10.22
2022-11-05T16:13:28.922Z,10.12
2022-11-05T16:18:34.627Z,10.05
2022-11-05T16:23:49.659Z,10.02
2022-11-05T16:28:52.884Z,10.01
2022-11-05T16:33:55.971Z,9.99
2022-11-05T16:38:59.373Z,9.97
2022-11-05T16:44:03.208Z,9.96
2022-11-05T16:49:06.241Z,9.95
2022-11-05T16:54:09.749Z,9.86
2022-11-05T16:59:13.210Z,9.83
2022-11-05T17:04:16.017Z,9.79
2022-11-05T17:09:18.995Z,9.72
2022-11-05T17:14:21.831Z,9.69
2022-11-05T17:19:24.583Z,9.65
2022-11-05T17:24:27.336Z,9.60
2022-11-05T17:29:30.290Z,9.57
2022-11-05T17:34:32.994Z,9.49
2022-11-05T17:39:36.256Z,9.39
2022-11-05T17:44:39.039Z,9.32
2022-11-05T17:49:41.829Z,9.21
2022-11-05T17:54:44.643Z,9.16
2022-11-05T17:59:47.459Z,9.13
2022-11-05T18:04:50.342Z,9.07
2022-11-05T18:09:53.173Z,9.03
2022-11-05T18:14:55.988Z,9.03
2022-11-05T18:19:58.857Z,8.99
2022-11-05T18:25:01.744Z,8.96
2022-11-05T18:30:04.920Z,8.95
2022-11-05T18:35:08.107Z,8.96
2022-11-05T18:40:11.871Z,8.96
2022-11-05T18:45:14.822Z,8.96
2022-11-05T18:50:17.759Z,8.95
2022-11-05T18:55:20.943Z,8.97
2022-11-05T19:00:23.759Z,8.99
2022-11-05T19:05:29.483Z,8.99
2022-11-05T19:10:33.233Z,9.01
2022-11-05T19:15:36.299Z,9.04
2022-11-05T19:20:39.194Z,9.02
2022-11-05T19:25:42.092Z,9.00
2022-11-05T19:30:45.243Z,9.01
2022-11-05T19:35:47.996Z,9.00
2022-11-05T19:40:52.992Z,9.01
2022-11-05T19:45:55.775Z,8.97
2022-11-05T19:50:58.725Z,9.00
2022-11-05T19:56:16.050Z,8.97
2022-11-05T20:01:19.550Z,8.98
2022-11-05T20:06:28.412Z,9.02
2022-11-05T20:11:31.481Z,9.01
2022-11-05T20:16:38.243Z,9.02
2022-11-05T20:21:41.510Z,9.08
2022-11-05T20:26:44.394Z,9.02
2022-11-05T20:31:47.251Z,9.04
2022-11-05T20:36:50.031Z,9.08
2022-11-05T20:41:56.887Z,9.05
2022-11-05T20:46:59.790Z,9.07
2022-11-05T20:52:02.519Z,9.08
2022-11-05T20:57:05.292Z,9.08
2022-11-05T21:02:10.033Z,9.08
2022-11-05T21:07:12.785Z,9.07
2022-11-05T21:12:15.617Z,9.04
2022-11-05T21:17:18.693Z,9.03
2022-11-05T21:22:21.622Z,9.01
2022-11-05T21:27:24.742Z,9.00
2022-11-05T21:32:27.601Z,9.00
2022-11-05T21:37:31.617Z,8.98
2022-11-05T21:42:34.963Z,8.98
2022-11-05T21:47:37.785Z,8.97
2022-11-05T21:52:59.096Z,8.97
2022-11-05T21:58:28.235Z,8.97
2022-11-05T22:03:30.957Z,8.96
2022-11-05T22:08:33.661Z,8.95
2022-11-05T22:13:36.572Z,8.93
2022-11-05T22:18:39.298Z,8.94
2022-11-05T22:23:42.038Z,8.93
2022-11-05T22:28:44.759Z,8.92
2022-11-05T22:33:48.372Z,8.92
2022-11-05T22:38:51.189Z,8.92
2022-11-05T22:43:54.020Z,8.90
2022-11-05T22:48:58.286Z,8.87
2022-11-05T22:54:01.615Z,8.88
2022-11-05T22:59:05.032Z,8.87
2022-11-05T23:04:07.926Z,8.85
2022-11-05T23:09:38.799Z,8.84
2022-11-05T23:14:41.647Z,8.81
2022-11-05T23:20:02.901Z,8.80
2022-11-05T23:25:07.244Z,8.82
2022-11-05T23:30:13.456Z,8.79
2022-11-05T23:35:16.660Z,8.82
2022-11-05T23:40:22.590Z,8.83
2022-11-05T23:45:45.423Z,8.82
2022-11-05T23:50:57.032Z,8.82
2022-11-05T23:56:15.004Z,8.81
